Palmhurst, Texas
Current Conditions -  °F | °C
As of 5:53 PM on Sunday 25 Jan 2015 (Local Time) from KMFE Reporting Station
Clear Clear  
Wind Chill: 18°   Ceiling: Unl
Heat Index: 18°   Visibility: 10mi
Dew Point:   Wind: 5mph
Humidity: 43%   Direction: 310°NW
Pressure: 30.13"   Gusts: NA
Location:  26.2155°N, 98.325°W
Report Text: KMFE 252353Z 31004KT 10SM CLR 18/06 A3013 RMK AO2 SLP202 T01830056 10217 20172 51007
Loading
Personal Weather Stations






























Interactive Weather Map New forecast layout! Learn more

10-Day Weather Forecast

Advertisements
Track Severe Weather on mobile